Time;durP1;ratioP1;P1;durP2;ratioP2;P2;SDS_P1;SDS_P2;PMS_P1;PMS_P2;Temp;Humidity;BMP_temperature;BMP_pressure;BME280_temperature;BME280_humidity;BME280_pressure;Samples;Min_cycle;Max_cycle;Signal;HPM_P1;HPM_P2
2024/02/21 00:04:38;;;;;;;25.77;4.63;;;9.70;99.90;;;;;;10483683;28;20140;-62
2024/02/21 00:09:47;;;;;;;32.10;4.28;;;9.70;99.90;;;;;;10483194;28;20166;-63
2024/02/21 00:14:50;;;;;;;27.80;3.53;;;9.80;99.90;;;;;;10481823;28;20052;-62
2024/02/21 00:19:52;;;;;;;33.53;5.97;;;10.00;99.90;;;;;;10480006;28;20135;-63
2024/02/21 00:24:54;;;;;;;39.40;5.90;;;9.80;99.90;;;;;;10477397;28;20114;-63
2024/02/21 00:29:58;;;;;;;49.75;9.45;;;9.60;99.90;;;;;;10484108;28;20044;-62
2024/02/21 00:35:00;;;;;;;45.25;6.03;;;9.80;99.90;;;;;;10490676;28;20277;-62
2024/02/21 00:40:02;;;;;;;41.42;5.65;;;9.80;99.90;;;;;;10488538;28;20935;-62
2024/02/21 00:45:08;;;;;;;48.63;6.47;;;9.60;99.90;;;;;;10488524;28;20087;-62
2024/02/21 00:50:10;;;;;;;34.58;4.70;;;9.50;99.90;;;;;;10482911;28;20056;-62
2024/02/21 00:55:12;;;;;;;34.37;4.80;;;9.80;99.90;;;;;;10486031;28;20041;-62
2024/02/21 01:00:17;;;;;;;31.73;6.13;;;9.60;99.90;;;;;;10488186;28;20576;-62
2024/02/21 01:05:19;;;;;;;38.58;6.05;;;9.50;99.90;;;;;;10482407;28;20211;-62
2024/02/21 01:10:21;;;;;;;32.33;5.43;;;9.60;99.90;;;;;;10484322;28;20124;-63
2024/02/21 01:15:26;;;;;;;32.65;4.78;;;9.50;99.90;;;;;;10489056;28;20139;-64
2024/02/21 01:20:28;;;;;;;27.23;3.92;;;9.50;99.90;;;;;;10488124;28;20060;-62
2024/02/21 01:25:30;;;;;;;34.22;3.50;;;9.60;99.90;;;;;;10486557;28;20131;-62
2024/02/21 01:30:33;;;;;;;32.00;4.90;;;9.60;99.90;;;;;;10491539;28;20477;-63
2024/02/21 01:35:35;;;;;;;28.58;5.43;;;9.60;99.90;;;;;;10486056;28;20049;-61
2024/02/21 01:40:38;;;;;;;28.77;4.72;;;9.50;99.90;;;;;;10488084;28;20055;-62
2024/02/21 01:45:41;;;;;;;35.73;5.53;;;9.70;99.90;;;;;;10487036;28;20048;-62
2024/02/21 01:50:44;;;;;;;26.52;3.17;;;9.50;99.90;;;;;;10489448;28;20055;-61
2024/02/21 01:55:46;;;;;;;34.90;4.30;;;9.80;99.90;;;;;;10487255;28;20090;-62
2024/02/21 02:00:51;;;;;;;23.50;2.83;;;9.80;99.90;;;;;;10484454;28;20048;-62
2024/02/21 02:05:53;;;;;;;37.35;5.30;;;9.80;99.90;;;;;;10478853;28;20059;-63
2024/02/21 02:10:55;;;;;;;30.05;4.32;;;9.60;99.90;;;;;;10485600;28;20082;-62
2024/02/21 02:15:58;;;;;;;26.60;5.53;;;9.90;99.90;;;;;;10481664;28;20056;-62
2024/02/21 02:21:00;;;;;;;31.60;5.90;;;9.60;99.90;;;;;;10492389;28;20052;-62
2024/02/21 02:26:07;;;;;;;32.30;5.40;;;9.70;99.90;;;;;;10487299;28;20139;-61
2024/02/21 02:31:08;;;;;;;30.00;4.47;;;9.50;99.90;;;;;;10489561;28;20048;-61
2024/02/21 02:36:10;;;;;;;23.55;5.22;;;9.60;99.90;;;;;;10486558;28;20076;-61
2024/02/21 02:41:14;;;;;;;24.17;5.07;;;9.40;99.90;;;;;;10484745;28;20075;-61
2024/02/21 02:46:18;;;;;;;21.00;3.38;;;9.40;99.90;;;;;;10486641;28;20044;-63
2024/02/21 02:51:20;;;;;;;25.70;5.57;;;9.80;99.90;;;;;;10482409;28;20058;-62
2024/02/21 02:56:23;;;;;;;25.73;4.10;;;9.40;99.90;;;;;;10487495;28;20052;-63
2024/02/21 03:01:25;;;;;;;28.67;6.22;;;9.50;99.90;;;;;;10488302;28;20093;-62
2024/02/21 03:06:27;;;;;;;20.15;4.25;;;9.60;99.90;;;;;;10489210;28;20048;-63
2024/02/21 03:11:30;;;;;;;24.30;4.60;;;9.60;99.90;;;;;;10481514;28;20086;-63
2024/02/21 03:16:32;;;;;;;22.90;5.65;;;9.50;99.90;;;;;;10486395;28;20040;-62
2024/02/21 03:21:34;;;;;;;28.15;5.18;;;9.60;99.90;;;;;;10480255;28;20075;-63
2024/02/21 03:26:38;;;;;;;25.70;5.68;;;9.80;99.90;;;;;;10486075;28;20043;-62
2024/02/21 03:31:40;;;;;;;23.33;6.10;;;9.60;99.90;;;;;;10485920;28;20043;-62
2024/02/21 03:36:42;;;;;;;22.55;4.80;;;9.60;99.90;;;;;;10481294;28;20135;-62
2024/02/21 03:41:45;;;;;;;26.90;7.18;;;9.50;99.90;;;;;;10480378;28;20671;-61
2024/02/21 03:46:47;;;;;;;16.95;5.05;;;9.60;99.90;;;;;;10482100;28;20041;-61
2024/02/21 03:51:49;;;;;;;10.82;4.13;;;9.60;99.90;;;;;;10478732;28;20082;-61
2024/02/21 03:56:53;;;;;;;31.85;5.55;;;9.90;99.90;;;;;;10481672;28;20067;-63
2024/02/21 04:15:39;;;;;;;12.88;4.30;;;9.60;99.90;;;;;;10576668;27;20127;-61
2024/02/21 04:20:41;;;;;;;15.80;5.03;;;9.90;99.90;;;;;;10596396;27;20039;-59
2024/02/21 04:25:43;;;;;;;24.50;6.72;;;9.70;99.90;;;;;;10607145;27;20058;-63
2024/02/21 04:30:47;;;;;;;4.90;2.15;;;9.60;99.90;;;;;;10607288;27;20051;-61
2024/02/21 04:35:49;;;;;;;24.40;7.28;;;9.80;99.90;;;;;;10602070;27;20052;-63
2024/02/21 04:40:52;;;;;;;12.30;3.50;;;9.70;99.90;;;;;;10596689;27;20052;-61
2024/02/21 04:45:56;;;;;;;23.50;7.40;;;9.70;99.90;;;;;;10597566;27;20058;-62
2024/02/21 04:50:58;;;;;;;13.20;4.93;;;10.30;99.90;;;;;;10590972;27;20123;-62
2024/02/21 04:56:01;;;;;;;18.17;4.50;;;10.00;99.90;;;;;;10599601;27;20139;-61
2024/02/21 05:01:05;;;;;;;15.80;5.40;;;10.20;99.90;;;;;;10599080;27;20078;-63
2024/02/21 05:06:07;;;;;;;14.82;5.70;;;10.20;99.90;;;;;;10591916;27;20054;-62
2024/02/21 05:11:09;;;;;;;17.92;7.28;;;10.10;99.90;;;;;;10597423;27;20047;-61
2024/02/21 05:16:13;;;;;;;12.43;5.78;;;10.10;99.90;;;;;;10596552;27;20055;-61
2024/02/21 05:21:15;;;;;;;13.95;5.55;;;9.80;99.90;;;;;;10593273;27;20069;-62
2024/02/21 05:26:22;;;;;;;13.02;6.35;;;10.80;99.90;;;;;;10560829;27;20055;-62
2024/02/21 05:31:27;;;;;;;18.88;6.63;;;9.90;99.90;;;;;;10565914;27;20151;-63
2024/02/21 05:36:30;;;;;;;11.93;4.63;;;10.30;99.90;;;;;;10565031;27;20829;-62
2024/02/21 05:41:32;;;;;;;14.55;5.72;;;10.60;99.90;;;;;;10565002;27;20043;-62
2024/02/21 05:46:35;;;;;;;11.23;5.00;;;11.40;99.90;;;;;;10569939;27;20081;-63
2024/02/21 05:51:37;;;;;;;12.77;7.05;;;10.90;99.90;;;;;;10564032;27;20080;-62
2024/02/21 05:56:39;;;;;;;11.07;5.65;;;10.50;99.90;;;;;;10565519;27;20416;-61
2024/02/21 06:01:44;;;;;;;14.65;6.60;;;11.10;99.90;;;;;;10568277;27;20584;-62
2024/02/21 06:06:46;;;;;;;20.08;6.78;;;11.00;99.90;;;;;;10568773;27;20877;-61
2024/02/21 06:11:49;;;;;;;20.55;9.13;;;10.20;99.90;;;;;;10552523;27;20055;-61
2024/02/21 06:16:52;;;;;;;18.95;10.00;;;9.60;99.90;;;;;;10553903;27;20052;-61
2024/02/21 06:21:54;;;;;;;21.83;10.30;;;9.90;99.90;;;;;;10568936;27;20059;-63
2024/02/21 06:26:56;;;;;;;17.88;7.72;;;9.60;99.90;;;;;;10572180;27;20395;-62
2024/02/21 06:32:00;;;;;;;8.57;4.00;;;10.00;99.90;;;;;;10562038;27;20051;-62
2024/02/21 06:37:02;;;;;;;20.70;9.07;;;10.10;99.90;;;;;;10568826;27;20051;-62
2024/02/21 06:42:04;;;;;;;9.40;5.20;;;10.10;99.90;;;;;;10566226;27;20052;-62
2024/02/21 06:47:11;;;;;;;21.70;7.68;;;11.80;99.90;;;;;;10557556;27;20559;-62
2024/02/21 06:52:16;;;;;;;18.30;7.63;;;11.70;99.90;;;;;;10555086;27;20899;-62
2024/02/21 06:57:18;;;;;;;20.60;9.85;;;11.50;99.90;;;;;;10557566;27;20084;-62
2024/02/21 07:02:22;;;;;;;20.00;9.20;;;10.90;99.90;;;;;;10553720;27;20066;-63
2024/02/21 07:07:24;;;;;;;24.85;10.07;;;11.40;99.90;;;;;;10562909;27;20058;-63
2024/02/21 07:12:26;;;;;;;18.27;9.30;;;11.50;99.90;;;;;;10551359;27;20527;-61
2024/02/21 07:17:29;;;;;;;18.40;7.25;;;11.30;99.90;;;;;;10561991;27;20183;-62
2024/02/21 07:22:31;;;;;;;19.67;9.23;;;11.30;99.90;;;;;;10550517;27;20058;-62
2024/02/21 07:27:33;;;;;;;24.52;11.57;;;12.20;99.90;;;;;;10554989;27;20059;-63
2024/02/21 07:32:37;;;;;;;27.48;11.50;;;11.10;99.90;;;;;;10552827;27;20059;-60
2024/02/21 07:37:39;;;;;;;25.35;9.82;;;12.30;99.90;;;;;;10549514;27;20082;-60
2024/02/21 07:42:41;;;;;;;12.03;5.63;;;12.10;99.90;;;;;;10549765;27;20323;-61
2024/02/21 07:47:46;;;;;;;18.40;7.23;;;13.00;99.90;;;;;;10553780;27;20059;-62
2024/02/21 07:52:48;;;;;;;14.35;7.55;;;13.40;99.90;;;;;;10554114;27;20078;-61
2024/02/21 07:57:50;;;;;;;23.20;8.70;;;14.20;99.90;;;;;;10549709;27;20067;-62
2024/02/21 08:02:54;;;;;;;11.93;6.30;;;13.90;99.90;;;;;;10552863;27;20972;-62
2024/02/21 08:07:56;;;;;;;18.55;7.95;;;13.30;99.90;;;;;;10545250;27;20530;-61
2024/02/21 08:13:00;;;;;;;19.50;7.83;;;13.40;99.90;;;;;;10552730;28;20168;-61
2024/02/21 08:18:04;;;;;;;14.25;6.53;;;12.90;99.90;;;;;;10550303;28;20073;-62
2024/02/21 08:23:07;;;;;;;16.33;7.10;;;14.30;99.90;;;;;;10553909;27;20070;-62
2024/02/21 08:28:09;;;;;;;13.05;4.97;;;13.80;99.90;;;;;;10553235;28;20084;-63
2024/02/21 08:33:13;;;;;;;13.47;7.33;;;14.10;99.90;;;;;;10556785;28;20564;-62
2024/02/21 08:38:15;;;;;;;11.70;5.78;;;13.30;99.90;;;;;;10548706;28;20113;-61
2024/02/21 08:43:19;;;;;;;16.23;8.20;;;14.10;99.90;;;;;;10547600;28;20059;-61
2024/02/21 08:48:23;;;;;;;12.95;6.70;;;13.80;99.90;;;;;;10548591;27;20047;-61
2024/02/21 08:53:25;;;;;;;12.90;6.13;;;13.70;99.90;;;;;;10552340;28;20055;-62
2024/02/21 08:58:27;;;;;;;12.90;5.43;;;13.80;99.90;;;;;;10559737;27;20052;-62
2024/02/21 09:03:32;;;;;;;12.17;6.60;;;13.70;99.90;;;;;;10564776;27;20129;-62
2024/02/21 09:08:34;;;;;;;13.55;5.93;;;14.70;99.90;;;;;;10558957;27;20092;-62
2024/02/21 09:13:36;;;;;;;13.17;5.20;;;14.50;99.90;;;;;;10554995;27;20051;-61
2024/02/21 09:18:39;;;;;;;13.10;6.77;;;14.40;99.90;;;;;;10566961;27;20051;-61
2024/02/21 09:23:42;;;;;;;11.38;4.32;;;14.90;99.90;;;;;;10554341;27;20047;-62
2024/02/21 09:28:45;;;;;;;11.75;5.72;;;15.60;99.90;;;;;;10554905;27;20555;-61
2024/02/21 09:33:48;;;;;;;;;;;15.20;99.90;;;;;;10554280;27;20062;-62
2024/02/21 09:38:50;;;;;;;12.63;7.07;;;14.30;99.90;;;;;;10555099;27;20022;-61
2024/02/21 09:43:53;;;;;;;8.87;5.33;;;14.10;99.90;;;;;;10560808;27;20050;-63
2024/02/21 09:49:14;;;;;;;12.60;6.80;;;15.00;99.90;;;;;;10558410;27;20089;-62
2024/02/21 09:54:18;;;;;;;9.00;5.55;;;15.50;99.90;;;;;;10557027;27;22259;-62
2024/02/21 09:59:20;;;;;;;15.60;6.55;;;15.80;99.90;;;;;;10561371;27;20822;-62
2024/02/21 10:04:24;;;;;;;9.88;5.82;;;16.10;99.90;;;;;;10567016;27;20051;-63
2024/02/21 10:09:27;;;;;;;19.77;7.18;;;16.40;99.90;;;;;;10557203;27;20051;-61
2024/02/21 10:14:30;;;;;;;16.02;6.72;;;16.10;99.90;;;;;;10558013;27;20107;-62
2024/02/21 10:19:33;;;;;;;14.88;5.95;;;14.30;99.90;;;;;;10548713;27;20412;-62
2024/02/21 10:24:37;;;;;;;14.95;5.50;;;15.50;99.90;;;;;;10552942;27;20054;-61
2024/02/21 10:29:41;;;;;;;13.13;7.15;;;15.80;99.90;;;;;;10557575;27;20632;-61
2024/02/21 10:34:45;;;;;;;16.13;9.75;;;14.70;99.90;;;;;;10559186;27;20056;-61
2024/02/21 10:39:47;;;;;;;13.32;7.45;;;14.10;99.90;;;;;;10554938;27;20095;-59
2024/02/21 10:44:52;;;;;;;10.00;8.05;;;14.20;99.90;;;;;;10557016;27;20167;-58
2024/02/21 10:50:05;;;;;;;9.73;6.05;;;14.50;99.90;;;;;;10554795;27;20398;-60
2024/02/21 10:55:12;;;;;;;9.10;5.82;;;15.00;99.90;;;;;;10550855;27;20048;-60
2024/02/21 11:00:18;;;;;;;11.60;7.57;;;15.20;99.90;;;;;;10558731;27;20499;-61
2024/02/21 11:05:21;;;;;;;12.60;5.90;;;14.60;99.90;;;;;;10558880;27;20074;-61
2024/02/21 11:10:25;;;;;;;11.35;6.85;;;15.00;99.90;;;;;;10556111;27;20051;-61
2024/02/21 11:15:28;;;;;;;15.15;7.35;;;15.60;99.90;;;;;;10551233;27;20058;-60
2024/02/21 11:20:38;;;;;;;9.57;6.72;;;14.40;99.90;;;;;;10537868;27;20134;-61
2024/02/21 11:25:41;;;;;;;13.45;7.32;;;14.40;99.90;;;;;;10549007;27;20528;-61
2024/02/21 11:30:43;;;;;;;10.23;6.47;;;14.60;99.90;;;;;;10550908;27;20050;-60
2024/02/21 11:35:47;;;;;;;16.85;7.82;;;15.00;99.90;;;;;;10549770;27;20050;-61
2024/02/21 11:40:49;;;;;;;13.25;7.18;;;15.60;99.90;;;;;;10548503;27;20166;-61
2024/02/21 11:45:51;;;;;;;11.77;6.47;;;13.80;99.90;;;;;;10553051;27;20853;-62
2024/02/21 11:50:58;;;;;;;13.80;5.70;;;14.70;99.90;;;;;;10533975;27;20062;-61
2024/02/21 11:56:00;;;;;;;10.02;6.35;;;15.00;99.90;;;;;;10555224;27;20048;-62
2024/02/21 12:01:18;;;;;;;14.03;5.77;;;14.40;99.90;;;;;;10554237;27;20043;-61
2024/02/21 12:06:22;;;;;;;13.30;5.28;;;15.20;99.90;;;;;;10546431;27;20059;-64
2024/02/21 12:11:25;;;;;;;5.07;3.13;;;15.60;99.90;;;;;;10550677;27;20060;-62
2024/02/21 12:16:28;;;;;;;8.75;2.97;;;16.10;99.90;;;;;;10561642;28;20051;-62
2024/02/21 12:21:36;;;;;;;7.90;4.00;;;16.00;99.90;;;;;;10560267;27;20054;-63
2024/02/21 12:26:38;;;;;;;9.00;3.50;;;15.70;99.90;;;;;;10559827;28;20047;-63
2024/02/21 12:31:40;;;;;;;8.47;5.57;;;15.40;99.90;;;;;;10560609;27;20152;-61
2024/02/21 12:36:47;;;;;;;9.67;4.90;;;14.60;99.90;;;;;;10567760;27;20773;-62
2024/02/21 12:41:49;;;;;;;7.22;3.50;;;14.30;99.90;;;;;;10568433;27;20513;-62
2024/02/21 12:46:53;;;;;;;9.90;4.60;;;14.90;99.90;;;;;;10568402;27;20052;-62
2024/02/21 12:51:57;;;;;;;8.63;5.00;;;14.70;99.90;;;;;;10567990;27;20088;-62
2024/02/21 12:57:02;;;;;;;10.35;5.32;;;13.90;99.90;;;;;;10572155;27;20043;-62
2024/02/21 13:02:05;;;;;;;4.70;2.15;;;13.10;99.90;;;;;;10567570;27;20099;-61
2024/02/21 13:07:08;;;;;;;8.82;3.60;;;15.10;99.90;;;;;;10561988;27;20051;-62
2024/02/21 13:12:12;;;;;;;12.98;4.78;;;15.20;99.90;;;;;;10562265;27;20062;-63
2024/02/21 13:17:14;;;;;;;10.23;4.72;;;14.50;99.90;;;;;;10565290;27;20062;-61
2024/02/21 13:22:22;;;;;;;7.50;4.03;;;15.20;99.90;;;;;;10562351;27;20051;-62
2024/02/21 13:27:24;;;;;;;6.57;5.03;;;15.20;99.90;;;;;;10568193;27;20197;-62
2024/02/21 13:32:26;;;;;;;5.00;2.70;;;15.50;99.90;;;;;;10569387;27;20047;-62
2024/02/21 13:37:30;;;;;;;10.93;3.70;;;16.30;99.90;;;;;;10563280;27;20051;-63
2024/02/21 13:42:33;;;;;;;5.35;3.72;;;16.70;99.90;;;;;;10566039;27;20109;-62
2024/02/21 13:47:36;;;;;;;9.98;3.90;;;16.60;99.90;;;;;;10564192;27;20142;-62
2024/02/21 13:52:39;;;;;;;8.23;3.53;;;16.90;99.90;;;;;;10568123;27;20058;-62
2024/02/21 13:57:41;;;;;;;7.80;5.07;;;16.90;99.90;;;;;;10566907;27;20435;-63
2024/02/21 14:02:43;;;;;;;16.27;5.97;;;16.60;99.90;;;;;;10556578;27;20059;-62
2024/02/21 14:07:47;;;;;;;6.60;4.88;;;16.60;99.90;;;;;;10556807;27;21148;-61
2024/02/21 14:12:49;;;;;;;11.35;4.97;;;16.90;99.90;;;;;;10559794;27;20055;-62
2024/02/21 14:17:51;;;;;;;5.97;3.70;;;17.10;99.90;;;;;;10555377;27;20055;-61
2024/02/21 14:22:54;;;;;;;10.23;6.10;;;17.00;99.90;;;;;;10552851;27;20516;-60
2024/02/21 14:27:56;;;;;;;7.97;5.40;;;16.90;99.90;;;;;;10557384;27;20677;-60
2024/02/21 14:32:58;;;;;;;9.27;3.93;;;16.70;99.90;;;;;;10553618;27;20082;-60
2024/02/21 14:38:02;;;;;;;12.37;5.23;;;17.20;99.90;;;;;;10554347;27;20078;-61
2024/02/21 14:43:04;;;;;;;4.85;3.72;;;17.40;99.90;;;;;;10554036;27;20383;-62
2024/02/21 14:48:10;;;;;;;4.82;3.30;;;17.50;99.90;;;;;;10555673;27;20039;-62
2024/02/21 14:53:14;;;;;;;7.55;3.40;;;17.40;99.90;;;;;;10552567;27;20043;-62
2024/02/21 14:58:17;;;;;;;9.65;3.78;;;17.30;99.90;;;;;;10550969;27;20123;-60
2024/02/21 15:03:20;;;;;;;5.90;2.83;;;17.00;99.90;;;;;;10555727;27;20070;-60
2024/02/21 15:08:23;;;;;;;11.82;4.43;;;17.50;99.90;;;;;;10554329;27;20963;-61
2024/02/21 15:13:25;;;;;;;5.68;2.60;;;16.30;99.90;;;;;;10552512;27;20052;-61
2024/02/21 15:18:28;;;;;;;0.00;0.00;;;15.70;99.90;;;;;;10559081;27;20051;-61
2024/02/21 15:23:31;;;;;;;0.90;0.80;;;16.80;99.90;;;;;;10553331;27;20047;-61
2024/02/21 15:28:34;;;;;;;0.10;0.10;;;17.00;99.90;;;;;;10549754;27;20054;-60
2024/02/21 15:33:36;;;;;;;0.00;0.00;;;17.30;99.90;;;;;;10556689;27;20047;-60
2024/02/21 15:38:40;;;;;;;0.45;0.45;;;16.40;99.90;;;;;;10548290;27;20162;-59
2024/02/21 15:43:42;;;;;;;0.17;0.17;;;16.20;99.90;;;;;;10550044;27;20134;-59
2024/02/21 15:48:46;;;;;;;0.03;0.03;;;16.20;99.90;;;;;;10557022;27;20974;-60
2024/02/21 15:53:50;;;;;;;0.10;0.10;;;16.30;99.90;;;;;;10549457;27;20035;-61
2024/02/21 15:58:52;;;;;;;0.08;0.08;;;16.50;99.90;;;;;;10558292;27;20058;-60
2024/02/21 16:03:55;;;;;;;0.00;0.00;;;17.00;99.90;;;;;;10554854;27;20048;-60
2024/02/21 16:08:59;;;;;;;0.22;0.22;;;16.80;99.90;;;;;;10548106;27;20056;-61
2024/02/21 16:14:02;;;;;;;0.10;0.10;;;16.80;99.90;;;;;;10553019;27;20104;-61
2024/02/21 16:19:05;;;;;;;0.20;0.20;;;16.70;99.90;;;;;;10552133;28;20059;-62
2024/02/21 16:24:08;;;;;;;;;;;14.70;99.90;;;;;;10550786;27;20043;-62
2024/02/21 16:29:12;;;;;;;0.10;0.10;;;15.10;99.90;;;;;;10548410;28;19920;-60
2024/02/21 16:34:14;;;;;;;0.10;0.10;;;15.20;99.90;;;;;;10545417;28;20103;-62
2024/02/21 16:39:17;;;;;;;0.00;0.00;;;15.10;99.90;;;;;;10547258;28;20577;-61
2024/02/21 16:44:19;;;;;;;0.40;0.40;;;16.30;99.90;;;;;;10547570;28;20097;-62
2024/02/21 16:49:21;;;;;;;0.77;0.77;;;15.30;99.90;;;;;;10556126;28;20463;-61
2024/02/21 16:54:26;;;;;;;0.00;0.00;;;14.60;99.90;;;;;;10556958;27;20043;-61
2024/02/21 16:59:28;;;;;;;1.35;0.85;;;13.90;99.90;;;;;;10554334;28;20052;-61
2024/02/21 17:04:30;;;;;;;0.10;0.10;;;13.30;99.90;;;;;;10557916;28;20461;-61
2024/02/21 17:09:36;;;;;;;0.10;0.10;;;13.00;99.90;;;;;;10541018;28;20504;-61
2024/02/21 17:14:38;;;;;;;0.10;0.10;;;14.20;99.90;;;;;;10550237;28;20047;-62
2024/02/21 17:19:41;;;;;;;;;;;14.40;99.90;;;;;;10554270;27;20047;-64
2024/02/21 17:24:44;;;;;;;0.30;0.30;;;14.40;99.90;;;;;;10551780;27;19939;-62
2024/02/21 17:29:46;;;;;;;0.20;0.20;;;12.90;99.90;;;;;;10549651;27;20923;-63
2024/02/21 17:34:48;;;;;;;0.10;0.10;;;12.90;99.90;;;;;;10556011;27;20046;-61
2024/02/21 17:39:52;;;;;;;0.75;0.75;;;13.60;99.90;;;;;;10549703;27;20582;-61
2024/02/21 17:44:54;;;;;;;0.10;0.10;;;13.70;99.90;;;;;;10555144;27;20051;-61
2024/02/21 17:49:56;;;;;;;0.43;0.43;;;13.80;99.90;;;;;;10565026;27;20410;-61
2024/02/21 17:55:04;;;;;;;5.53;1.20;;;13.70;99.90;;;;;;10555272;27;20050;-64
2024/02/21 18:00:08;;;;;;;0.10;0.10;;;13.60;99.90;;;;;;10557913;27;20090;-61
2024/02/21 18:05:11;;;;;;;0.55;0.55;;;12.70;99.90;;;;;;10561902;27;20039;-61
2024/02/21 18:10:14;;;;;;;;;;;12.80;99.90;;;;;;10551667;27;20071;-61
2024/02/21 18:15:17;;;;;;;0.10;0.10;;;11.90;99.90;;;;;;10552771;27;20384;-63
2024/02/21 18:20:19;;;;;;;0.20;0.20;;;13.00;99.90;;;;;;10560280;27;20343;-62
2024/02/21 18:25:25;;;;;;;0.15;0.15;;;11.20;99.90;;;;;;10552288;27;20039;-61
2024/02/21 18:30:28;;;;;;;1.75;1.13;;;12.50;99.90;;;;;;10550427;27;20828;-62
2024/02/21 18:35:32;;;;;;;0.17;0.17;;;11.60;99.90;;;;;;10562342;27;20062;-60
2024/02/21 18:40:37;;;;;;;0.10;0.10;;;11.90;99.90;;;;;;10555782;27;20055;-61
2024/02/21 18:45:40;;;;;;;0.40;0.40;;;11.50;99.90;;;;;;10550896;27;20039;-60
2024/02/21 18:50:43;;;;;;;0.63;0.63;;;11.40;99.90;;;;;;10565107;27;20043;-61
2024/02/21 18:55:46;;;;;;;0.17;0.17;;;11.20;99.90;;;;;;10557483;27;20386;-60
2024/02/21 19:00:51;;;;;;;22.95;2.40;;;11.90;99.90;;;;;;10559202;27;20043;-61
2024/02/21 19:05:53;;;;;;;0.10;0.10;;;11.60;99.90;;;;;;10558021;27;20041;-61
2024/02/21 19:11:04;;;;;;;0.23;0.23;;;12.00;99.90;;;;;;10555371;27;20127;-60
2024/02/21 19:16:07;;;;;;;0.17;0.17;;;11.40;99.90;;;;;;10552962;27;20155;-62
2024/02/21 19:21:10;;;;;;;0.30;0.30;;;11.70;99.90;;;;;;10548672;27;20058;-57
2024/02/21 19:26:15;;;;;;;0.10;0.10;;;11.20;99.90;;;;;;10565578;27;20043;-54
2024/02/21 19:31:17;;;;;;;0.10;0.10;;;10.80;99.90;;;;;;10560898;27;20051;-58
2024/02/21 19:36:19;;;;;;;0.10;0.10;;;11.00;99.90;;;;;;10568949;27;20837;-57
2024/02/21 19:41:23;;;;;;;0.38;0.38;;;11.20;99.90;;;;;;10560188;27;20059;-59
2024/02/21 19:46:25;;;;;;;0.98;0.73;;;10.90;99.90;;;;;;10556808;27;20188;-58
2024/02/21 19:51:28;;;;;;;0.40;0.23;;;11.50;99.90;;;;;;10554048;27;20418;-58
2024/02/21 19:56:32;;;;;;;0.10;0.10;;;10.40;99.90;;;;;;10550854;27;20604;-57
2024/02/21 20:01:34;;;;;;;0.52;0.52;;;10.20;99.90;;;;;;10556186;27;20058;-56
2024/02/21 20:06:36;;;;;;;1.70;1.37;;;10.10;99.90;;;;;;10550529;27;20051;-57
2024/02/21 20:11:41;;;;;;;0.10;0.10;;;10.40;99.90;;;;;;10554265;27;20600;-57
2024/02/21 20:16:44;;;;;;;0.10;0.10;;;10.60;99.90;;;;;;10542371;28;20411;-59
2024/02/21 20:21:48;;;;;;;;;;;10.40;99.90;;;;;;10557593;28;20124;-60
2024/02/21 20:26:53;;;;;;;0.10;0.10;;;10.50;99.90;;;;;;10550595;28;20628;-59
2024/02/21 20:31:59;;;;;;;0.32;0.32;;;10.30;99.90;;;;;;10560091;28;20103;-59
2024/02/21 20:37:04;;;;;;;0.57;0.57;;;10.30;99.90;;;;;;10557827;27;20055;-58
2024/02/21 20:42:09;;;;;;;0.17;0.17;;;10.00;99.90;;;;;;10554359;28;20066;-59
2024/02/21 20:47:11;;;;;;;0.20;0.20;;;10.10;99.90;;;;;;10554425;28;20125;-58
2024/02/21 20:52:14;;;;;;;0.10;0.10;;;10.20;99.90;;;;;;10561561;27;20056;-58
2024/02/21 20:57:17;;;;;;;0.23;0.23;;;10.10;99.90;;;;;;10558215;27;20416;-59
2024/02/21 21:02:19;;;;;;;0.55;0.55;;;10.40;99.90;;;;;;10567681;27;20525;-60
2024/02/21 21:07:23;;;;;;;0.20;0.20;;;10.20;99.90;;;;;;10554071;27;20422;-58
2024/02/21 21:12:29;;;;;;;0.10;0.10;;;10.20;99.90;;;;;;10562706;27;20372;-61
2024/02/21 21:17:35;;;;;;;0.22;0.22;;;10.70;99.90;;;;;;10560772;27;20079;-57
2024/02/21 21:22:40;;;;;;;0.13;0.13;;;10.20;99.90;;;;;;10555351;27;22832;-62
2024/02/21 21:27:46;;;;;;;0.10;0.10;;;10.40;99.90;;;;;;10559362;27;20138;-61
2024/02/21 21:32:49;;;;;;;0.10;0.10;;;10.40;99.90;;;;;;10569765;27;20051;-60
2024/02/21 21:37:51;;;;;;;0.10;0.10;;;10.40;99.90;;;;;;10553224;27;20059;-58
2024/02/21 21:42:54;;;;;;;0.10;0.10;;;10.40;99.90;;;;;;10564890;27;20547;-58
2024/02/21 21:47:56;;;;;;;0.10;0.10;;;10.50;99.90;;;;;;10569837;27;20973;-57
2024/02/21 21:52:58;;;;;;;0.10;0.10;;;10.50;99.90;;;;;;10568763;27;20438;-61
2024/02/21 21:58:04;;;;;;;0.10;0.10;;;10.70;99.90;;;;;;10563721;27;20454;-59
2024/02/21 22:03:06;;;;;;;0.10;0.10;;;10.60;99.90;;;;;;10567720;27;20480;-59
2024/02/21 22:08:08;;;;;;;0.10;0.10;;;10.40;99.90;;;;;;10557658;27;20054;-59
2024/02/21 22:13:12;;;;;;;0.13;0.13;;;10.40;99.90;;;;;;10562951;27;20885;-57
2024/02/21 22:18:14;;;;;;;0.10;0.10;;;10.60;99.90;;;;;;10566315;27;20162;-56
2024/02/21 22:23:20;;;;;;;0.10;0.10;;;10.70;99.90;;;;;;10562897;27;20053;-60
2024/02/21 22:28:23;;;;;;;0.10;0.10;;;10.80;99.90;;;;;;10569061;27;20680;-57
2024/02/21 22:33:25;;;;;;;0.30;0.30;;;10.60;99.90;;;;;;10563885;27;20051;-58
2024/02/21 22:38:29;;;;;;;0.10;0.10;;;10.50;99.90;;;;;;10570816;27;20091;-58
2024/02/21 22:43:33;;;;;;;0.20;0.20;;;10.40;99.90;;;;;;10567256;27;20055;-58
2024/02/21 22:48:35;;;;;;;0.10;0.10;;;10.50;99.90;;;;;;10559300;27;20431;-59
2024/02/21 22:53:37;;;;;;;0.13;0.13;;;10.60;99.90;;;;;;10559757;27;20052;-58
2024/02/21 22:58:41;;;;;;;0.10;0.10;;;10.40;99.90;;;;;;10543500;27;20075;-59
2024/02/21 23:03:43;;;;;;;0.15;0.15;;;10.30;99.90;;;;;;10562887;27;20056;-59
2024/02/21 23:08:45;;;;;;;0.10;0.10;;;10.50;99.90;;;;;;10566379;27;20768;-60
2024/02/21 23:13:48;;;;;;;0.25;0.25;;;10.30;99.90;;;;;;10567557;27;20062;-59
2024/02/21 23:18:51;;;;;;;0.10;0.10;;;10.40;99.90;;;;;;10557317;27;20449;-59
2024/02/21 23:23:53;;;;;;;0.70;0.70;;;10.50;99.90;;;;;;10578789;27;20444;-63
2024/02/21 23:28:57;;;;;;;0.20;0.20;;;10.50;99.90;;;;;;10571734;27;20429;-59
2024/02/21 23:33:59;;;;;;;0.38;0.38;;;10.40;99.90;;;;;;10573349;27;20064;-60
2024/02/21 23:39:01;;;;;;;1.33;1.23;;;10.60;99.90;;;;;;10576073;27;20937;-59
2024/02/21 23:44:05;;;;;;;0.20;0.20;;;10.30;99.90;;;;;;10585780;27;20046;-63
2024/02/21 23:49:06;;;;;;;0.20;0.20;;;10.20;99.90;;;;;;10568119;27;20043;-59
2024/02/21 23:54:08;;;;;;;0.10;0.10;;;10.20;99.90;;;;;;10569139;27;20565;-59
2024/02/21 23:59:12;;;;;;;9.73;2.40;;;10.40;99.90;;;;;;10566130;27;20072;-59
